createdAt,value
2023-02-11T00:01:30.508Z,79.65
2023-02-11T00:04:32.937Z,81.13
2023-02-11T00:07:35.368Z,80.60
2023-02-11T00:10:37.833Z,80.28
2023-02-11T00:13:40.170Z,79.92
2023-02-11T00:16:42.751Z,80.01
2023-02-11T00:19:44.976Z,80.78
2023-02-11T00:22:47.431Z,80.42
2023-02-11T00:25:49.748Z,79.99
2023-02-11T00:28:53.428Z,80.12
2023-02-11T00:31:55.736Z,80.96
2023-02-11T00:34:59.457Z,80.25
2023-02-11T00:38:01.585Z,79.60
2023-02-11T00:41:04.235Z,79.04
2023-02-11T00:44:06.872Z,78.27
2023-02-11T00:47:09.306Z,78.23
2023-02-11T00:50:11.424Z,78.53
2023-02-11T00:53:13.912Z,78.57
2023-02-11T00:56:16.172Z,78.09
2023-02-11T00:59:18.621Z,77.65
2023-02-11T01:02:20.763Z,77.84
2023-02-11T01:05:23.244Z,76.75
2023-02-11T01:08:25.463Z,76.93
2023-02-11T01:11:27.872Z,76.78
2023-02-11T01:14:30.124Z,76.53
2023-02-11T01:17:33.077Z,75.73
2023-02-11T01:20:35.410Z,75.03
2023-02-11T01:23:37.985Z,74.51
2023-02-11T01:26:40.130Z,74.86
2023-02-11T01:29:42.581Z,74.26
2023-02-11T01:32:44.773Z,73.80
2023-02-11T01:35:47.634Z,73.81
2023-02-11T01:38:49.922Z,74.05
2023-02-11T01:41:54.742Z,74.18
2023-02-11T01:44:58.097Z,73.83
2023-02-11T01:48:02.444Z,73.84
2023-02-11T01:51:18.243Z,73.89
2023-02-11T01:54:43.924Z,74.36
2023-02-11T01:57:51.350Z,74.67
2023-02-11T02:00:55.014Z,74.83
2023-02-11T02:04:01.977Z,75.74
2023-02-11T02:07:11.120Z,75.82
2023-02-11T02:10:19.169Z,75.59
2023-02-11T02:13:23.147Z,75.51
2023-02-11T02:16:33.697Z,74.36
2023-02-11T02:20:21.708Z,74.04
2023-02-11T02:23:52.608Z,74.16
2023-02-11T02:27:12.823Z,73.59
2023-02-11T02:30:52.995Z,74.08
2023-02-11T02:34:36.530Z,74.07
2023-02-11T02:37:51.338Z,74.05
2023-02-11T02:40:59.365Z,75.15
2023-02-11T02:44:02.592Z,75.47
2023-02-11T02:47:04.817Z,75.55
2023-02-11T02:50:09.706Z,74.99
2023-02-11T02:53:32.388Z,75.06
2023-02-11T02:57:08.610Z,75.43
2023-02-11T03:00:42.210Z,76.65
2023-02-11T03:04:08.810Z,76.30
2023-02-11T03:07:27.665Z,75.94
2023-02-11T03:10:34.264Z,75.85
2023-02-11T03:13:39.297Z,76.07
2023-02-11T03:16:45.635Z,77.24
2023-02-11T03:19:51.733Z,77.59
2023-02-11T03:22:58.369Z,77.70
2023-02-11T03:26:08.421Z,76.76
2023-02-11T03:29:29.020Z,78.09
2023-02-11T03:32:36.804Z,77.47
2023-02-11T03:35:45.900Z,78.28
2023-02-11T03:38:52.352Z,78.52
2023-02-11T03:41:58.582Z,78.31
2023-02-11T03:45:09.200Z,77.36
2023-02-11T03:48:14.546Z,77.62
2023-02-11T03:51:17.426Z,77.53
2023-02-11T03:54:26.570Z,78.26
2023-02-11T03:57:28.792Z,77.29
2023-02-11T04:00:34.158Z,77.19
2023-02-11T04:03:36.696Z,77.20
2023-02-11T04:06:39.257Z,77.65
2023-02-11T04:09:41.772Z,78.84
2023-02-11T04:12:43.946Z,77.48
2023-02-11T04:15:48.801Z,77.19
2023-02-11T04:18:51.279Z,77.08
2023-02-11T04:21:53.752Z,77.36
2023-02-11T04:24:55.984Z,77.59
2023-02-11T04:27:58.456Z,77.41
2023-02-11T04:31:00.648Z,78.31
2023-02-11T04:34:03.140Z,77.43
2023-02-11T04:37:05.345Z,77.89
2023-02-11T04:40:08.509Z,77.51
2023-02-11T04:43:10.696Z,77.73
2023-02-11T04:46:13.295Z,78.78
2023-02-11T04:49:16.760Z,78.36
2023-02-11T04:52:19.298Z,79.22
2023-02-11T04:55:21.520Z,79.67
2023-02-11T04:58:24.354Z,78.94
2023-02-11T05:01:26.643Z,78.78
2023-02-11T05:04:29.168Z,78.56
2023-02-11T05:07:31.460Z,78.67
2023-02-11T05:10:34.458Z,78.56
2023-02-11T05:13:37.063Z,78.84
2023-02-11T05:16:39.611Z,79.06
2023-02-11T05:19:42.137Z,78.77
2023-02-11T05:22:44.585Z,79.22
2023-02-11T05:25:46.753Z,79.11
2023-02-11T05:28:49.189Z,78.45
2023-02-11T05:31:51.366Z,79.54
2023-02-11T05:34:53.822Z,79.56
2023-02-11T05:37:56.031Z,79.15
2023-02-11T05:40:58.548Z,79.62
2023-02-11T05:44:00.785Z,79.80
2023-02-11T05:47:03.395Z,80.45
2023-02-11T05:50:06.252Z,79.74
2023-02-11T05:53:08.718Z,80.08
2023-02-11T05:56:11.616Z,80.01
2023-02-11T05:59:14.883Z,79.31
2023-02-11T06:02:17.078Z,79.06
2023-02-11T06:05:19.968Z,78.90
2023-02-11T06:08:22.301Z,79.32
2023-02-11T06:11:24.793Z,82.18
2023-02-11T06:14:27.410Z,81.83
2023-02-11T06:17:33.714Z,80.74
2023-02-11T06:20:36.074Z,79.94
2023-02-11T06:23:39.179Z,79.76
2023-02-11T06:26:41.409Z,80.02
2023-02-11T06:29:43.860Z,79.12
2023-02-11T06:32:46.427Z,79.05
2023-02-11T06:35:49.637Z,78.31
2023-02-11T06:38:53.311Z,77.65
2023-02-11T06:41:55.715Z,77.94
2023-02-11T06:44:57.901Z,77.33
2023-02-11T06:48:00.360Z,76.59
2023-02-11T06:51:07.137Z,76.71
2023-02-11T06:54:11.243Z,76.43
2023-02-11T06:57:13.431Z,76.58
2023-02-11T07:00:16.381Z,76.19
2023-02-11T07:03:18.635Z,76.31
2023-02-11T07:06:24.722Z,75.80
2023-02-11T07:09:26.883Z,75.52
2023-02-11T07:12:29.518Z,75.30
2023-02-11T07:15:31.797Z,75.85
2023-02-11T07:18:34.467Z,76.10
2023-02-11T07:21:36.666Z,75.73
2023-02-11T07:24:39.175Z,76.21
2023-02-11T07:27:41.365Z,76.68
2023-02-11T07:30:43.831Z,75.92
2023-02-11T07:33:46.513Z,75.74
2023-02-11T07:36:49.298Z,72.30
2023-02-11T07:39:51.472Z,70.90
2023-02-11T07:42:53.891Z,68.45
2023-02-11T07:45:56.094Z,67.25
2023-02-11T07:48:58.502Z,65.67
2023-02-11T07:52:00.648Z,65.19
2023-02-11T07:55:04.883Z,63.54
2023-02-11T07:58:07.138Z,63.58
2023-02-11T08:01:18.653Z,62.70
2023-02-11T08:04:21.248Z,62.10
2023-02-11T08:07:23.403Z,61.94
2023-02-11T08:10:25.798Z,61.26
2023-02-11T08:13:27.980Z,60.79
2023-02-11T08:16:35.450Z,60.77
2023-02-11T08:19:38.853Z,60.95
2023-02-11T08:22:41.296Z,60.87
2023-02-11T08:25:43.478Z,61.04
2023-02-11T08:28:48.070Z,60.23
2023-02-11T08:31:50.288Z,61.02
2023-02-11T08:34:53.269Z,60.10
2023-02-11T08:37:55.496Z,59.88
2023-02-11T08:41:00.660Z,59.80
2023-02-11T08:44:03.036Z,59.54
2023-02-11T08:47:05.463Z,61.12
2023-02-11T08:50:08.043Z,61.67
2023-02-11T08:53:10.587Z,62.04
2023-02-11T08:56:14.430Z,61.27
2023-02-11T08:59:17.744Z,61.91
2023-02-11T09:02:20.020Z,61.43
2023-02-11T09:05:23.163Z,62.34
2023-02-11T09:08:25.282Z,61.84
2023-02-11T09:11:30.962Z,61.42
2023-02-11T09:14:33.254Z,61.87
2023-02-11T09:17:35.683Z,61.21
2023-02-11T09:20:37.807Z,60.49
2023-02-11T09:23:43.504Z,59.53
2023-02-11T09:26:45.667Z,58.94
2023-02-11T09:29:48.153Z,59.05
2023-02-11T09:32:50.279Z,57.08
2023-02-11T09:35:52.716Z,56.32
2023-02-11T09:38:55.379Z,55.86
2023-02-11T09:42:18.348Z,55.49
2023-02-11T09:45:29.522Z,56.33
2023-02-11T09:48:40.788Z,55.12
2023-02-11T09:51:49.989Z,55.86
2023-02-11T09:54:58.834Z,56.96
2023-02-11T09:58:05.127Z,56.64
2023-02-11T10:01:28.944Z,56.89
2023-02-11T10:05:13.358Z,55.90
2023-02-11T10:08:50.707Z,55.70
2023-02-11T10:12:04.482Z,55.17
2023-02-11T10:15:06.532Z,56.11
2023-02-11T10:18:17.958Z,54.94
2023-02-11T10:21:20.063Z,55.41
2023-02-11T10:24:22.496Z,54.76
2023-02-11T10:27:30.723Z,54.53
2023-02-11T10:30:38.872Z,54.35
2023-02-11T10:33:58.242Z,53.93
2023-02-11T10:37:00.727Z,54.46
2023-02-11T10:40:03.268Z,53.91
2023-02-11T10:43:10.523Z,53.83
2023-02-11T10:46:19.460Z,53.52
2023-02-11T10:49:46.018Z,54.37
2023-02-11T10:52:48.637Z,53.75
2023-02-11T10:55:57.277Z,53.58
2023-02-11T10:59:06.012Z,53.86
2023-02-11T11:02:31.980Z,52.49
2023-02-11T11:05:47.117Z,52.45
2023-02-11T11:08:51.617Z,51.68
2023-02-11T11:11:53.923Z,51.14
2023-02-11T11:14:59.922Z,50.23
2023-02-11T11:18:28.113Z,50.45
2023-02-11T11:21:40.643Z,52.64
2023-02-11T11:24:46.685Z,52.97
2023-02-11T11:27:51.204Z,53.38
2023-02-11T11:30:55.892Z,52.20
2023-02-11T11:34:00.940Z,52.23
2023-02-11T11:37:22.056Z,51.53
2023-02-11T11:40:27.932Z,50.53
2023-02-11T11:43:30.221Z,48.68
2023-02-11T11:46:35.864Z,48.83
2023-02-11T11:49:40.894Z,46.70
2023-02-11T11:53:03.989Z,47.00
2023-02-11T11:56:13.184Z,46.35
2023-02-11T11:59:17.078Z,46.04
2023-02-11T12:02:50.627Z,46.50
2023-02-11T12:06:25.028Z,47.02
2023-02-11T12:09:51.751Z,47.06
2023-02-11T12:13:17.563Z,45.37
2023-02-11T12:16:25.312Z,45.73
2023-02-11T12:19:46.389Z,45.61
2023-02-11T12:23:28.989Z,44.92
2023-02-11T12:26:57.894Z,44.83
2023-02-11T12:30:18.342Z,45.06
2023-02-11T12:33:53.768Z,45.88
2023-02-11T12:37:27.170Z,44.17
2023-02-11T12:40:46.313Z,45.28
2023-02-11T12:43:49.772Z,45.73
2023-02-11T12:47:08.377Z,45.03
2023-02-11T12:50:25.382Z,44.08
2023-02-11T12:54:10.819Z,44.62
2023-02-11T12:57:26.557Z,45.02
2023-02-11T13:00:42.004Z,44.60
2023-02-11T13:03:54.241Z,45.11
2023-02-11T13:07:02.263Z,44.53
2023-02-11T13:10:07.611Z,44.76
2023-02-11T13:13:31.612Z,44.74
2023-02-11T13:16:42.682Z,44.35
2023-02-11T13:19:52.858Z,42.30
2023-02-11T13:23:22.823Z,41.21
2023-02-11T13:26:45.607Z,41.41
2023-02-11T13:30:25.440Z,41.13
2023-02-11T13:33:34.202Z,40.64
2023-02-11T13:36:36.400Z,40.06
2023-02-11T13:39:39.366Z,40.06
2023-02-11T13:42:52.237Z,39.95
2023-02-11T13:46:00.554Z,39.44
2023-02-11T13:49:02.833Z,40.18
2023-02-11T13:52:18.379Z,40.07
2023-02-11T13:55:23.811Z,40.52
2023-02-11T13:58:28.967Z,40.08
2023-02-11T14:01:39.421Z,40.81
2023-02-11T14:05:31.748Z,40.98
2023-02-11T14:08:52.433Z,41.19
2023-02-11T14:12:31.504Z,41.16
2023-02-11T14:15:40.489Z,41.67
2023-02-11T14:18:49.227Z,41.01
2023-02-11T14:21:51.412Z,41.20
2023-02-11T14:25:01.450Z,41.05
2023-02-11T14:28:17.348Z,40.70
2023-02-11T14:31:26.232Z,41.05
2023-02-11T14:34:51.718Z,41.13
2023-02-11T14:38:00.207Z,40.86
2023-02-11T14:41:25.399Z,41.11
2023-02-11T14:44:31.250Z,41.23
2023-02-11T14:47:46.758Z,41.30
2023-02-11T14:51:00.550Z,41.53
2023-02-11T14:54:24.893Z,41.83
2023-02-11T14:57:28.079Z,41.64
2023-02-11T15:00:30.503Z,41.82
2023-02-11T15:03:36.249Z,41.90
2023-02-11T15:06:49.723Z,42.14
2023-02-11T15:09:54.165Z,41.81
2023-02-11T15:12:57.471Z,41.99
2023-02-11T15:16:09.288Z,42.39
2023-02-11T15:19:28.397Z,42.51
2023-02-11T15:22:36.503Z,42.73
2023-02-11T15:25:51.173Z,43.22
2023-02-11T15:28:53.680Z,43.73
2023-02-11T15:32:23.152Z,44.16
2023-02-11T15:35:32.386Z,44.09
2023-02-11T15:38:34.574Z,44.63
2023-02-11T15:41:38.699Z,44.35
2023-02-11T15:44:41.344Z,44.67
2023-02-11T15:47:53.727Z,44.58
2023-02-11T15:51:00.206Z,44.87
2023-02-11T15:54:08.938Z,45.62
2023-02-11T15:57:11.733Z,45.44
2023-02-11T16:00:17.189Z,45.63
2023-02-11T16:03:25.349Z,45.97
2023-02-11T16:06:36.978Z,46.31
2023-02-11T16:09:39.819Z,46.58
2023-02-11T16:12:54.727Z,47.02
2023-02-11T16:16:02.452Z,46.99
2023-02-11T16:19:06.442Z,47.23
2023-02-11T16:22:14.879Z,47.50
2023-02-11T16:25:20.599Z,47.92
2023-02-11T16:28:23.102Z,47.60
2023-02-11T16:31:42.150Z,47.85
2023-02-11T16:34:44.573Z,47.77
2023-02-11T16:37:46.716Z,48.34
2023-02-11T16:40:50.043Z,48.72
2023-02-11T16:43:52.392Z,48.69
2023-02-11T16:46:58.445Z,48.32
2023-02-11T16:50:02.221Z,48.55
2023-02-11T16:53:06.436Z,48.77
2023-02-11T16:56:16.055Z,48.50
2023-02-11T16:59:18.553Z,48.19
2023-02-11T17:02:26.062Z,48.35
2023-02-11T17:05:28.475Z,48.16
2023-02-11T17:08:30.614Z,47.98
2023-02-11T17:11:33.068Z,47.93
2023-02-11T17:14:35.239Z,47.71
2023-02-11T17:17:37.762Z,48.10
2023-02-11T17:20:40.474Z,48.39
2023-02-11T17:23:43.112Z,48.90
2023-02-11T17:26:46.270Z,48.97
2023-02-11T17:29:48.792Z,49.25
2023-02-11T17:32:51.007Z,49.23
2023-02-11T17:35:53.933Z,49.38
2023-02-11T17:38:56.525Z,49.59
2023-02-11T17:41:58.979Z,49.40
2023-02-11T17:45:01.161Z,49.44
2023-02-11T17:48:03.828Z,49.50
2023-02-11T17:51:20.470Z,49.69
2023-02-11T17:54:23.029Z,50.47
2023-02-11T17:57:25.158Z,50.77
2023-02-11T18:00:28.363Z,51.29
2023-02-11T18:03:30.892Z,51.34
2023-02-11T18:06:36.191Z,51.76
2023-02-11T18:09:40.445Z,51.85
2023-02-11T18:12:42.836Z,51.78
2023-02-11T18:15:45.247Z,52.16
2023-02-11T18:18:47.611Z,52.26
2023-02-11T18:21:50.918Z,52.65
2023-02-11T18:24:54.665Z,53.10
2023-02-11T18:27:57.089Z,52.70
2023-02-11T18:31:00.179Z,52.82
2023-02-11T18:34:05.759Z,53.00
2023-02-11T18:37:08.275Z,53.13
2023-02-11T18:40:11.491Z,52.82
2023-02-11T18:43:14.351Z,53.77
2023-02-11T18:46:17.268Z,53.44
2023-02-11T18:49:20.180Z,53.52
2023-02-11T18:52:22.696Z,53.53
2023-02-11T18:55:25.907Z,53.96
2023-02-11T18:58:28.385Z,53.78
2023-02-11T19:01:33.033Z,53.70
2023-02-11T19:04:37.324Z,53.42
2023-02-11T19:07:39.713Z,53.61
2023-02-11T19:10:44.451Z,54.04
2023-02-11T19:13:47.837Z,53.93
2023-02-11T19:16:52.795Z,54.05
2023-02-11T19:19:55.014Z,54.00
2023-02-11T19:22:57.436Z,54.19
2023-02-11T19:25:59.631Z,54.39
2023-02-11T19:29:02.285Z,54.65
2023-02-11T19:32:08.579Z,54.99
2023-02-11T19:35:11.064Z,55.40
2023-02-11T19:38:15.672Z,55.32
2023-02-11T19:41:23.055Z,55.15
2023-02-11T19:44:25.252Z,55.15
2023-02-11T19:47:27.892Z,55.60
2023-02-11T19:50:30.219Z,55.85
2023-02-11T19:53:32.595Z,55.58
2023-02-11T19:59:12.028Z,55.52
2023-02-11T20:02:14.598Z,55.94
2023-02-11T20:05:17.091Z,55.67
2023-02-11T20:08:19.203Z,56.65
2023-02-11T20:11:21.594Z,56.54
2023-02-11T20:14:26.159Z,55.89
2023-02-11T20:17:29.985Z,56.81
2023-02-11T20:20:32.214Z,56.75
2023-02-11T20:23:35.717Z,56.65
2023-02-11T20:26:40.824Z,56.25
2023-02-11T20:29:43.208Z,56.51
2023-02-11T20:32:45.409Z,56.90
2023-02-11T20:35:56.854Z,57.13
2023-02-11T20:38:59.660Z,57.42
2023-02-11T20:42:01.965Z,57.31
2023-02-11T20:45:04.316Z,57.82
2023-02-11T20:48:06.752Z,58.68
2023-02-11T20:51:11.650Z,58.95
2023-02-11T20:54:17.634Z,65.16
2023-02-11T20:57:19.810Z,66.98
2023-02-11T21:00:22.261Z,68.75
2023-02-11T21:03:24.516Z,69.34
2023-02-11T21:06:31.207Z,69.96
2023-02-11T21:09:33.622Z,70.08
2023-02-11T21:12:36.105Z,70.48
2023-02-11T21:15:38.259Z,70.55
2023-02-11T21:18:40.688Z,70.44
2023-02-11T21:21:43.113Z,70.42
2023-02-11T21:24:45.604Z,70.36
2023-02-11T21:27:47.722Z,70.64
2023-02-11T21:30:50.579Z,70.98
2023-02-11T21:33:54.986Z,70.66
2023-02-11T21:36:57.406Z,71.37
2023-02-11T21:39:59.587Z,71.95
2023-02-11T21:43:01.988Z,72.35
2023-02-11T21:46:13.105Z,72.23
2023-02-11T21:49:15.581Z,71.98
2023-02-11T21:52:17.680Z,71.98
2023-02-11T21:55:20.150Z,71.64
2023-02-11T21:58:22.776Z,72.11
2023-02-11T22:01:27.765Z,72.60
2023-02-11T22:04:30.825Z,73.10
2023-02-11T22:07:35.468Z,73.12
2023-02-11T22:10:38.912Z,73.75
2023-02-11T22:13:41.415Z,73.74
2023-02-11T22:16:45.265Z,73.95
2023-02-11T22:19:47.397Z,74.18
2023-02-11T22:22:50.727Z,73.84
2023-02-11T22:25:53.102Z,74.31
2023-02-11T22:28:56.370Z,74.40
2023-02-11T22:31:58.677Z,74.96
2023-02-11T22:35:01.202Z,75.17
2023-02-11T22:38:04.381Z,76.10
2023-02-11T22:41:10.216Z,75.80
2023-02-11T22:44:13.283Z,75.74
2023-02-11T22:47:15.671Z,75.82
2023-02-11T22:50:17.853Z,75.95
2023-02-11T22:53:20.313Z,76.33
2023-02-11T22:56:23.735Z,76.54
2023-02-11T22:59:26.191Z,76.84
2023-02-11T23:02:28.376Z,77.40
2023-02-11T23:05:30.854Z,77.97
2023-02-11T23:08:33.670Z,78.08
2023-02-11T23:11:36.443Z,77.72
2023-02-11T23:14:38.540Z,77.63
2023-02-11T23:17:40.937Z,77.52
2023-02-11T23:20:43.893Z,77.70
2023-02-11T23:23:46.657Z,78.01
2023-02-11T23:26:49.146Z,78.66
2023-02-11T23:29:51.531Z,78.45
2023-02-11T23:32:53.731Z,78.47
2023-02-11T23:35:56.363Z,78.68
2023-02-11T23:38:58.710Z,79.50
2023-02-11T23:42:01.212Z,79.86
2023-02-11T23:45:03.520Z,80.68
2023-02-11T23:48:05.982Z,80.14
2023-02-11T23:51:09.783Z,80.14
2023-02-11T23:54:13.822Z,80.14
2023-02-11T23:57:16.004Z,80.27
